createdAt,value
2023-02-21T00:00:41.292Z,20.35
2023-02-21T00:03:26.541Z,29.27
2023-02-21T00:06:12.205Z,23.98
2023-02-21T00:08:57.722Z,16.98
2023-02-21T00:11:42.916Z,24.48
2023-02-21T00:14:28.594Z,29.25
2023-02-21T00:17:13.900Z,26.75
2023-02-21T00:19:59.994Z,22.70
2023-02-21T00:22:45.288Z,24.15
2023-02-21T00:25:30.781Z,35.22
2023-02-21T00:28:16.105Z,20.27
2023-02-21T00:31:01.663Z,24.02
2023-02-21T00:33:46.986Z,26.20
2023-02-21T00:36:35.827Z,27.58
2023-02-21T00:39:21.607Z,20.38
2023-02-21T00:42:06.952Z,32.42
2023-02-21T00:44:52.283Z,18.85
2023-02-21T00:47:37.416Z,19.40
2023-02-21T00:50:23.416Z,28.33
2023-02-21T00:53:08.766Z,24.33
2023-02-21T00:55:54.113Z,27.98
2023-02-21T00:58:42.681Z,26.30
2023-02-21T01:01:28.057Z,25.92
2023-02-21T01:04:13.542Z,28.23
2023-02-21T01:06:58.820Z,26.27
2023-02-21T01:09:44.230Z,19.00
2023-02-21T01:12:29.713Z,26.05
2023-02-21T01:15:15.468Z,23.35
2023-02-21T01:18:01.283Z,23.08
2023-02-21T01:20:46.598Z,18.42
2023-02-21T01:23:32.005Z,16.10
2023-02-21T01:26:17.360Z,14.77
2023-02-21T01:29:02.687Z,17.58
2023-02-21T01:31:48.016Z,21.70
2023-02-21T01:34:35.977Z,15.60
2023-02-21T01:37:21.398Z,23.73
2023-02-21T01:40:06.735Z,18.90
2023-02-21T01:42:51.955Z,20.23
2023-02-21T01:45:40.621Z,19.95
2023-02-21T01:48:31.531Z,17.92
2023-02-21T01:51:17.821Z,21.60
2023-02-21T01:54:04.241Z,17.08
2023-02-21T01:56:50.688Z,16.25
2023-02-21T01:59:38.424Z,21.08
2023-02-21T02:02:35.782Z,19.70
2023-02-21T02:05:23.960Z,17.95
2023-02-21T02:08:10.665Z,21.83
2023-02-21T02:10:55.994Z,23.98
2023-02-21T02:13:52.116Z,17.95
2023-02-21T02:16:45.693Z,22.23
2023-02-21T02:19:21.287Z,21.17
2023-02-21T02:22:19.292Z,17.83
2023-02-21T02:25:09.060Z,19.73
2023-02-21T02:27:51.373Z,23.45
2023-02-21T02:31:10.685Z,27.88
2023-02-21T02:34:09.586Z,16.95
2023-02-21T02:36:44.210Z,17.58
2023-02-21T02:39:39.840Z,22.65
2023-02-21T02:42:27.998Z,21.20
2023-02-21T02:45:05.677Z,20.45
2023-02-21T02:47:36.541Z,21.55
2023-02-21T02:50:06.800Z,21.27
2023-02-21T02:52:35.520Z,24.50
2023-02-21T02:55:05.961Z,23.90
2023-02-21T02:57:40.843Z,21.42
2023-02-21T03:00:10.767Z,26.58
2023-02-21T03:03:00.820Z,29.50
2023-02-21T03:06:11.817Z,18.25
2023-02-21T03:08:38.563Z,26.15
2023-02-21T03:11:21.660Z,21.55
2023-02-21T03:14:05.176Z,25.48
2023-02-21T03:16:39.298Z,24.35
2023-02-21T03:19:13.847Z,29.20
2023-02-21T03:21:47.967Z,20.25
2023-02-21T03:24:17.274Z,19.92
2023-02-21T03:26:48.560Z,24.45
2023-02-21T03:29:17.308Z,31.55
2023-02-21T03:31:49.778Z,16.52
2023-02-21T03:34:16.794Z,22.45
2023-02-21T03:36:44.663Z,27.90
2023-02-21T03:39:11.479Z,17.25
2023-02-21T03:41:38.302Z,20.27
2023-02-21T03:44:05.281Z,22.90
2023-02-21T03:46:32.385Z,25.05
2023-02-21T03:48:59.202Z,20.95
2023-02-21T03:51:26.054Z,23.98
2023-02-21T03:53:52.845Z,24.17
2023-02-21T03:56:19.753Z,19.05
2023-02-21T03:58:46.585Z,19.33
2023-02-21T04:01:13.788Z,22.10
2023-02-21T04:03:40.878Z,29.05
2023-02-21T04:06:07.716Z,23.52
2023-02-21T04:08:34.643Z,19.95
2023-02-21T04:11:01.480Z,23.80
2023-02-21T04:13:28.236Z,21.40
2023-02-21T04:15:58.182Z,25.42
2023-02-21T04:18:25.121Z,22.98
2023-02-21T04:20:52.152Z,24.35
2023-02-21T04:23:20.097Z,23.50
2023-02-21T04:25:47.368Z,27.40
2023-02-21T04:28:14.345Z,25.88
2023-02-21T04:30:41.178Z,26.67
2023-02-21T04:33:08.234Z,20.65
2023-02-21T04:35:35.046Z,23.55
2023-02-21T04:38:01.866Z,25.48
2023-02-21T04:40:28.673Z,21.40
2023-02-21T04:42:55.697Z,20.65
2023-02-21T04:45:22.531Z,27.50
2023-02-21T04:47:49.333Z,21.05
2023-02-21T04:50:16.243Z,20.77
2023-02-21T04:52:43.163Z,23.77
2023-02-21T04:55:10.010Z,25.45
2023-02-21T04:57:36.928Z,33.92
2023-02-21T05:00:07.314Z,20.08
2023-02-21T05:02:34.487Z,25.15
2023-02-21T05:05:01.452Z,26.58
2023-02-21T05:07:28.332Z,28.13
2023-02-21T05:09:55.160Z,23.40
2023-02-21T05:12:21.924Z,24.52
2023-02-21T05:14:48.752Z,19.65
2023-02-21T05:17:15.589Z,27.02
2023-02-21T05:19:42.442Z,23.95
2023-02-21T05:22:09.306Z,21.50
2023-02-21T05:24:42.597Z,36.47
2023-02-21T05:27:15.854Z,24.83
2023-02-21T05:29:46.372Z,18.67
2023-02-21T05:32:13.328Z,23.67
2023-02-21T05:34:44.353Z,24.98
2023-02-21T05:37:12.493Z,31.67
2023-02-21T05:39:39.504Z,31.27
2023-02-21T05:42:07.775Z,24.55
2023-02-21T05:44:34.847Z,22.05
2023-02-21T05:47:07.405Z,27.88
2023-02-21T05:49:34.366Z,24.95
2023-02-21T05:52:01.207Z,28.25
2023-02-21T05:54:28.309Z,20.75
2023-02-21T05:56:57.810Z,20.05
2023-02-21T05:59:24.961Z,23.75
2023-02-21T06:01:51.948Z,19.65
2023-02-21T06:04:19.241Z,19.52
2023-02-21T06:06:46.258Z,21.48
2023-02-21T06:09:13.143Z,23.98
2023-02-21T06:11:40.465Z,23.40
2023-02-21T06:14:13.896Z,30.08
2023-02-21T06:16:40.752Z,26.92
2023-02-21T06:19:09.087Z,26.33
2023-02-21T06:21:36.068Z,31.88
2023-02-21T06:24:03.827Z,19.60
2023-02-21T06:26:30.897Z,24.15
2023-02-21T06:28:57.827Z,22.75
2023-02-21T06:31:24.951Z,29.80
2023-02-21T06:33:52.121Z,25.88
2023-02-21T06:36:22.567Z,22.02
2023-02-21T06:38:51.985Z,25.17
2023-02-21T06:41:20.854Z,21.17
2023-02-21T06:43:47.787Z,23.70
2023-02-21T06:46:19.697Z,31.48
2023-02-21T06:48:46.633Z,27.33
2023-02-21T06:51:14.845Z,18.52
2023-02-21T06:53:42.813Z,22.80
2023-02-21T06:56:10.281Z,20.35
2023-02-21T06:58:37.226Z,31.77
2023-02-21T07:01:04.470Z,23.02
2023-02-21T07:03:31.314Z,19.73
2023-02-21T07:05:58.170Z,25.58
2023-02-21T07:08:26.212Z,30.85
2023-02-21T07:10:53.203Z,31.52
2023-02-21T07:13:22.435Z,24.35
2023-02-21T07:15:49.570Z,24.98
2023-02-21T07:18:16.406Z,37.92
2023-02-21T07:20:43.306Z,22.65
2023-02-21T07:23:10.330Z,24.15
2023-02-21T07:25:37.209Z,40.35
2023-02-21T07:28:04.512Z,30.95
2023-02-21T07:30:31.916Z,23.60
2023-02-21T07:32:59.290Z,24.08
2023-02-21T07:35:26.194Z,30.00
2023-02-21T07:37:53.172Z,29.63
2023-02-21T07:40:20.093Z,23.02
2023-02-21T07:42:48.074Z,25.65
2023-02-21T07:45:16.746Z,28.95
2023-02-21T07:47:47.846Z,35.65
2023-02-21T07:50:16.753Z,27.60
2023-02-21T07:52:45.263Z,29.88
2023-02-21T07:55:13.488Z,27.17
2023-02-21T07:57:40.310Z,26.92
2023-02-21T08:00:07.913Z,30.08
2023-02-21T08:02:34.745Z,28.98
2023-02-21T08:05:01.652Z,31.98
2023-02-21T08:07:30.166Z,27.90
2023-02-21T08:09:57.030Z,37.58
2023-02-21T08:12:23.829Z,26.10
2023-02-21T08:14:50.617Z,24.77
2023-02-21T08:17:17.667Z,30.40
2023-02-21T08:19:44.504Z,22.65
2023-02-21T08:22:11.630Z,23.45
2023-02-21T08:24:38.485Z,33.05
2023-02-21T08:27:05.282Z,38.10
2023-02-21T08:29:32.093Z,25.50
2023-02-21T08:31:59.195Z,33.65
2023-02-21T08:34:26.110Z,31.60
2023-02-21T08:36:52.921Z,33.05
2023-02-21T08:39:19.828Z,45.00
2023-02-21T08:41:48.608Z,38.22
2023-02-21T08:44:17.607Z,31.92
2023-02-21T08:46:45.022Z,33.60
2023-02-21T08:49:11.854Z,38.92
2023-02-21T08:51:40.263Z,36.22
2023-02-21T08:54:07.542Z,34.42
2023-02-21T08:56:35.001Z,38.75
2023-02-21T08:59:03.687Z,34.25
2023-02-21T09:01:33.345Z,27.60
2023-02-21T09:04:00.558Z,32.70
2023-02-21T09:06:27.396Z,23.17
2023-02-21T09:08:54.351Z,41.22
2023-02-21T09:11:21.202Z,29.90
2023-02-21T09:13:48.083Z,26.05
2023-02-21T09:16:15.274Z,32.22
2023-02-21T09:18:42.199Z,36.53
2023-02-21T09:21:09.166Z,29.13
2023-02-21T09:23:36.201Z,34.53
2023-02-21T09:26:03.094Z,33.83
2023-02-21T09:28:31.582Z,31.15
2023-02-21T09:30:58.627Z,30.58
2023-02-21T09:33:25.714Z,30.48
2023-02-21T09:35:54.031Z,29.08
2023-02-21T09:38:21.126Z,26.45
2023-02-21T09:40:58.846Z,31.27
2023-02-21T09:43:33.914Z,37.25
2023-02-21T09:46:21.955Z,31.33
2023-02-21T09:48:49.477Z,33.47
2023-02-21T09:51:17.500Z,28.15
2023-02-21T09:53:47.472Z,30.05
2023-02-21T09:56:35.470Z,25.70
2023-02-21T09:59:02.325Z,29.70
2023-02-21T10:01:44.158Z,35.80
2023-02-21T10:04:18.540Z,31.13
2023-02-21T10:09:57.437Z,33.53
2023-02-21T10:12:36.038Z,37.83
2023-02-21T10:15:15.168Z,39.03
2023-02-21T10:17:58.093Z,40.17
2023-02-21T10:20:37.238Z,28.90
2023-02-21T10:23:11.949Z,34.10
2023-02-21T10:25:46.031Z,33.95
2023-02-21T10:28:22.636Z,33.33
2023-02-21T10:30:55.131Z,28.65
2023-02-21T10:33:22.168Z,27.33
2023-02-21T10:35:49.027Z,36.65
2023-02-21T10:38:26.247Z,32.42
2023-02-21T10:40:57.297Z,31.90
2023-02-21T10:43:48.463Z,36.00
2023-02-21T10:46:34.390Z,33.33
2023-02-21T10:49:30.662Z,34.42
2023-02-21T10:52:21.232Z,32.75
2023-02-21T10:55:23.049Z,36.30
2023-02-21T10:57:59.729Z,30.70
2023-02-21T11:00:30.412Z,26.27
2023-02-21T11:03:04.513Z,35.65
2023-02-21T11:05:32.048Z,28.55
2023-02-21T11:08:08.810Z,33.20
2023-02-21T11:10:45.023Z,45.83
2023-02-21T11:13:17.013Z,33.60
2023-02-21T11:15:45.534Z,31.27
2023-02-21T11:18:14.246Z,27.17
2023-02-21T11:20:41.197Z,33.80
2023-02-21T11:23:27.084Z,37.53
2023-02-21T11:26:13.111Z,34.53
2023-02-21T11:28:43.540Z,31.05
2023-02-21T11:31:29.573Z,29.50
2023-02-21T11:34:08.718Z,36.03
2023-02-21T11:36:38.466Z,33.47
2023-02-21T11:39:21.802Z,29.20
2023-02-21T11:41:54.025Z,27.52
2023-02-21T11:44:35.208Z,32.50
2023-02-21T11:47:25.308Z,25.58
2023-02-21T11:50:09.747Z,34.92
2023-02-21T11:52:44.223Z,40.03
2023-02-21T11:55:16.829Z,34.80
2023-02-21T11:58:01.353Z,31.48
2023-02-21T12:00:42.217Z,34.75
2023-02-21T12:03:31.021Z,35.55
2023-02-21T12:06:21.135Z,29.20
2023-02-21T12:08:50.626Z,34.47
2023-02-21T12:11:26.443Z,32.80
2023-02-21T12:14:30.993Z,30.17
2023-02-21T12:17:20.597Z,33.20
2023-02-21T12:20:06.358Z,36.15
2023-02-21T12:22:42.206Z,29.85
2023-02-21T12:25:21.489Z,34.50
2023-02-21T12:28:03.365Z,25.33
2023-02-21T12:31:11.778Z,28.52
2023-02-21T12:33:55.557Z,28.20
2023-02-21T12:36:40.464Z,34.45
2023-02-21T12:39:32.458Z,25.80
2023-02-21T12:42:21.214Z,25.65
2023-02-21T12:44:53.797Z,30.50
2023-02-21T12:47:28.563Z,22.63
2023-02-21T12:50:28.985Z,24.02
2023-02-21T12:53:14.132Z,34.08
2023-02-21T12:55:46.161Z,24.77
2023-02-21T12:58:30.401Z,32.75
2023-02-21T13:01:21.378Z,31.38
2023-02-21T13:04:11.519Z,30.98
2023-02-21T13:06:53.409Z,27.92
2023-02-21T13:09:41.209Z,32.47
2023-02-21T13:12:19.540Z,29.92
2023-02-21T13:15:01.156Z,24.58
2023-02-21T13:17:28.225Z,31.52
2023-02-21T13:20:19.871Z,31.65
2023-02-21T13:23:04.812Z,30.60
2023-02-21T13:25:57.667Z,30.48
2023-02-21T13:28:27.606Z,27.52
2023-02-21T13:31:00.240Z,33.88
2023-02-21T13:33:28.967Z,39.55
2023-02-21T13:36:00.631Z,39.58
2023-02-21T13:38:30.963Z,30.35
2023-02-21T13:41:10.502Z,30.52
2023-02-21T13:43:51.149Z,32.50
2023-02-21T13:46:30.387Z,34.13
2023-02-21T13:49:34.896Z,31.50
2023-02-21T13:52:20.148Z,37.80
2023-02-21T13:55:14.023Z,29.20
2023-02-21T13:57:49.180Z,26.33
2023-02-21T14:00:24.845Z,32.00
2023-02-21T14:03:09.717Z,31.25
2023-02-21T14:05:50.202Z,27.52
2023-02-21T14:08:32.015Z,29.80
2023-02-21T14:11:07.835Z,30.77
2023-02-21T14:13:54.646Z,30.42
2023-02-21T14:16:46.342Z,28.33
2023-02-21T14:19:39.076Z,29.52
2023-02-21T14:22:16.294Z,30.65
2023-02-21T14:24:49.990Z,31.27
2023-02-21T14:27:16.751Z,35.95
2023-02-21T14:29:43.759Z,28.02
2023-02-21T14:32:10.984Z,26.90
2023-02-21T14:34:40.852Z,26.55
2023-02-21T14:37:19.459Z,25.63
2023-02-21T14:39:52.363Z,25.73
2023-02-21T14:42:38.044Z,33.13
2023-02-21T14:45:20.137Z,30.83
2023-02-21T14:48:05.345Z,32.95
2023-02-21T14:50:36.907Z,30.92
2023-02-21T14:53:41.057Z,34.53
2023-02-21T14:56:30.912Z,31.15
2023-02-21T14:59:19.763Z,33.10
2023-02-21T15:02:03.018Z,28.98
2023-02-21T15:04:29.869Z,32.63
2023-02-21T15:07:26.125Z,32.53
2023-02-21T15:10:23.449Z,28.88
2023-02-21T15:12:53.678Z,30.67
2023-02-21T15:15:28.496Z,32.50
2023-02-21T15:18:22.933Z,26.63
2023-02-21T15:21:04.708Z,39.13
2023-02-21T15:23:32.445Z,38.67
2023-02-21T15:26:03.023Z,35.25
2023-02-21T15:28:31.751Z,32.55
2023-02-21T15:31:02.645Z,37.97
2023-02-21T15:33:41.148Z,34.28
2023-02-21T15:36:17.172Z,34.38
2023-02-21T15:39:11.857Z,38.90
2023-02-21T15:41:43.053Z,36.65
2023-02-21T15:44:21.025Z,40.85
2023-02-21T15:47:01.538Z,36.75
2023-02-21T15:49:32.780Z,31.27
2023-02-21T15:52:02.004Z,30.98
2023-02-21T15:54:34.315Z,34.47
2023-02-21T15:57:23.882Z,28.75
2023-02-21T16:00:18.930Z,28.20
2023-02-21T16:02:46.009Z,36.78
2023-02-21T16:05:30.287Z,41.15
2023-02-21T16:08:04.769Z,34.30
2023-02-21T16:10:32.698Z,49.50
2023-02-21T16:13:02.061Z,46.30
2023-02-21T16:15:35.586Z,55.60
2023-02-21T16:18:11.278Z,51.53
2023-02-21T16:20:40.907Z,47.83
2023-02-21T16:23:23.997Z,48.80
2023-02-21T16:26:01.820Z,48.38
2023-02-21T16:28:32.881Z,40.88
2023-02-21T16:31:02.790Z,41.55
2023-02-21T16:33:30.376Z,39.97
2023-02-21T16:35:58.061Z,37.72
2023-02-21T16:38:26.017Z,45.25
2023-02-21T16:40:53.555Z,41.40
2023-02-21T16:43:26.373Z,53.38
2023-02-21T16:45:58.369Z,38.42
2023-02-21T16:48:33.445Z,36.20
2023-02-21T16:51:04.888Z,40.72
2023-02-21T16:53:32.125Z,35.78
2023-02-21T16:56:01.254Z,32.30
2023-02-21T16:58:30.708Z,49.15
2023-02-21T17:01:03.677Z,44.22
2023-02-21T17:03:30.745Z,46.50
2023-02-21T17:05:59.974Z,38.00
2023-02-21T17:08:28.278Z,38.10
2023-02-21T17:10:56.743Z,36.45
2023-02-21T17:13:24.298Z,45.67
2023-02-21T17:15:53.984Z,38.95
2023-02-21T17:18:21.563Z,43.45
2023-02-21T17:20:48.637Z,50.70
2023-02-21T17:23:15.700Z,46.80
2023-02-21T17:25:43.532Z,50.53
2023-02-21T17:28:10.427Z,45.92
2023-02-21T17:30:37.410Z,46.45
2023-02-21T17:33:05.172Z,42.00
2023-02-21T17:35:32.112Z,44.72
2023-02-21T17:38:01.761Z,39.50
2023-02-21T17:40:29.541Z,46.10
2023-02-21T17:42:57.221Z,44.00
2023-02-21T17:45:26.223Z,44.45
2023-02-21T17:47:54.901Z,45.47
2023-02-21T17:50:21.827Z,39.83
2023-02-21T17:52:49.035Z,37.33
2023-02-21T17:55:26.045Z,42.40
2023-02-21T17:57:53.610Z,40.20
2023-02-21T18:00:26.723Z,37.70
2023-02-21T18:02:55.256Z,46.90
2023-02-21T18:05:23.046Z,40.40
2023-02-21T18:07:51.758Z,47.78
2023-02-21T18:10:20.953Z,40.58
2023-02-21T18:12:50.858Z,42.85
2023-02-21T18:15:20.410Z,43.33
2023-02-21T18:17:47.570Z,45.13
2023-02-21T18:20:16.067Z,32.78
2023-02-21T18:22:43.517Z,46.70
2023-02-21T18:25:10.917Z,36.25
2023-02-21T18:27:37.793Z,37.17
2023-02-21T18:30:06.005Z,36.30
2023-02-21T18:32:33.076Z,36.38
2023-02-21T18:35:00.684Z,36.55
2023-02-21T18:37:27.888Z,38.65
2023-02-21T18:39:55.918Z,37.90
2023-02-21T18:42:24.090Z,40.65
2023-02-21T18:44:52.175Z,47.47
2023-02-21T18:47:19.807Z,46.50
2023-02-21T18:49:48.255Z,38.00
2023-02-21T18:52:16.252Z,39.53
2023-02-21T18:54:56.154Z,37.72
2023-02-21T18:57:23.628Z,36.97
2023-02-21T18:59:50.695Z,43.08
2023-02-21T19:02:19.576Z,40.70
2023-02-21T19:04:46.960Z,38.95
2023-02-21T19:07:16.890Z,40.13
2023-02-21T19:09:46.777Z,34.63
2023-02-21T19:12:14.488Z,34.25
2023-02-21T19:14:41.459Z,29.20
2023-02-21T19:17:09.268Z,34.17
2023-02-21T19:19:37.168Z,36.05
2023-02-21T19:22:05.140Z,39.60
2023-02-21T19:24:32.059Z,38.65
2023-02-21T19:26:59.238Z,40.00
2023-02-21T19:29:26.183Z,43.92
2023-02-21T19:31:54.113Z,39.38
2023-02-21T19:34:21.090Z,36.13
2023-02-21T19:36:48.883Z,34.63
2023-02-21T19:39:16.111Z,27.98
2023-02-21T19:41:43.057Z,34.47
2023-02-21T19:44:09.913Z,29.48
2023-02-21T19:46:36.800Z,37.45
2023-02-21T19:49:06.941Z,38.75
2023-02-21T19:51:34.232Z,37.90
2023-02-21T19:54:01.637Z,41.58
2023-02-21T19:56:28.671Z,30.98
2023-02-21T19:58:55.769Z,29.80
2023-02-21T20:01:25.244Z,38.53
2023-02-21T20:03:52.405Z,34.42
2023-02-21T20:06:19.503Z,36.72
2023-02-21T20:08:48.306Z,43.55
2023-02-21T20:11:17.838Z,32.47
2023-02-21T20:13:45.032Z,39.45
2023-02-21T20:16:15.434Z,38.30
2023-02-21T20:18:43.616Z,38.05
2023-02-21T20:21:10.561Z,36.22
2023-02-21T20:23:37.423Z,32.08
2023-02-21T20:26:04.398Z,35.58
2023-02-21T20:28:31.253Z,41.00
2023-02-21T20:30:58.558Z,37.78
2023-02-21T20:33:25.619Z,40.20
2023-02-21T20:35:52.963Z,38.63
2023-02-21T20:38:20.018Z,32.10
2023-02-21T20:40:47.552Z,37.83
2023-02-21T20:43:14.487Z,42.33
2023-02-21T20:45:41.558Z,39.92
2023-02-21T20:48:11.551Z,44.75
2023-02-21T20:50:39.114Z,40.28
2023-02-21T20:53:05.924Z,39.85
2023-02-21T20:55:32.946Z,42.45
2023-02-21T20:57:59.923Z,35.30
2023-02-21T21:00:30.467Z,44.88
2023-02-21T21:02:57.834Z,41.33
2023-02-21T21:05:26.298Z,53.92
2023-02-21T21:07:55.910Z,45.70
2023-02-21T21:10:24.147Z,43.92
2023-02-21T21:12:51.494Z,63.90
2023-02-21T21:15:20.434Z,43.58
2023-02-21T21:17:48.249Z,40.30
2023-02-21T21:20:18.000Z,37.80
2023-02-21T21:22:45.469Z,39.35
2023-02-21T21:25:12.970Z,37.38
2023-02-21T21:27:42.369Z,37.10
2023-02-21T21:30:14.611Z,31.35
2023-02-21T21:32:41.560Z,34.50
2023-02-21T21:35:08.748Z,42.00
2023-02-21T21:37:37.599Z,32.75
2023-02-21T21:40:16.496Z,28.77
2023-02-21T21:42:45.802Z,30.15
2023-02-21T21:45:18.706Z,27.90
2023-02-21T21:47:50.414Z,31.85
2023-02-21T21:50:19.625Z,25.88
2023-02-21T21:52:52.218Z,30.67
2023-02-21T21:55:25.641Z,26.42
2023-02-21T21:57:53.987Z,24.02
2023-02-21T22:00:23.706Z,24.10
2023-02-21T22:02:57.356Z,25.33
2023-02-21T22:05:30.385Z,30.40
2023-02-21T22:07:58.688Z,28.63
2023-02-21T22:10:26.755Z,25.23
2023-02-21T22:12:56.690Z,30.17
2023-02-21T22:15:26.186Z,24.38
2023-02-21T22:17:53.524Z,26.50
2023-02-21T22:20:28.335Z,26.35
2023-02-21T22:23:16.115Z,24.58
2023-02-21T22:25:43.159Z,30.98
2023-02-21T22:28:13.159Z,25.13
2023-02-21T22:30:40.951Z,24.83
2023-02-21T22:33:13.712Z,22.27
2023-02-21T22:35:41.548Z,28.95
2023-02-21T22:38:14.375Z,22.98
2023-02-21T22:40:42.098Z,29.45
2023-02-21T22:43:09.555Z,35.00
2023-02-21T22:45:37.722Z,38.67
2023-02-21T22:48:06.345Z,30.45
2023-02-21T22:50:36.948Z,32.95
2023-02-21T22:53:10.762Z,22.67
2023-02-21T22:55:38.041Z,29.75
2023-02-21T22:58:09.443Z,32.78
2023-02-21T23:00:37.744Z,33.15
2023-02-21T23:03:13.324Z,25.88
2023-02-21T23:05:49.637Z,26.20
2023-02-21T23:08:19.423Z,24.27
2023-02-21T23:10:47.248Z,28.85
2023-02-21T23:13:18.085Z,26.67
2023-02-21T23:15:46.523Z,34.80
2023-02-21T23:18:20.366Z,28.40
2023-02-21T23:20:48.671Z,23.73
2023-02-21T23:23:15.606Z,30.60
2023-02-21T23:25:42.453Z,29.30
2023-02-21T23:28:12.174Z,28.52
2023-02-21T23:30:41.264Z,24.95
2023-02-21T23:33:26.504Z,24.90
2023-02-21T23:35:55.418Z,29.52
2023-02-21T23:38:24.489Z,30.90
2023-02-21T23:40:56.396Z,29.00
2023-02-21T23:43:26.638Z,39.60
2023-02-21T23:45:53.731Z,39.72
2023-02-21T23:48:22.515Z,33.13
2023-02-21T23:50:50.314Z,39.30
2023-02-21T23:53:20.986Z,35.70
2023-02-21T23:55:48.925Z,32.05
2023-02-21T23:58:19.452Z,32.85
